createdAt,value
2019-04-04T00:00:05.661Z,96.30
2019-04-04T00:01:08.025Z,96.30
2019-04-04T00:01:48.137Z,96.30
2019-04-04T00:02:27.351Z,96.30
2019-04-04T00:03:05.864Z,96.30
2019-04-04T00:03:44.384Z,96.20
2019-04-04T00:04:22.924Z,96.30
2019-04-04T00:05:01.437Z,96.30
2019-04-04T00:05:40.040Z,96.30
2019-04-04T00:06:18.521Z,96.30
2019-04-04T00:06:58.084Z,96.30
2019-04-04T00:07:37.131Z,96.30
2019-04-04T00:08:16.136Z,96.30
2019-04-04T00:08:54.662Z,96.40
2019-04-04T00:09:33.751Z,96.30
2019-04-04T00:10:12.250Z,96.30
2019-04-04T00:10:51.012Z,96.30
2019-04-04T00:11:29.487Z,96.30
2019-04-04T00:12:08.078Z,96.30
2019-04-04T00:12:47.145Z,96.20
2019-04-04T00:13:25.664Z,96.20
2019-04-04T00:14:04.074Z,96.20
2019-04-04T00:14:43.893Z,96.10
2019-04-04T00:15:22.421Z,96.10
2019-04-04T00:16:00.869Z,96.20
2019-04-04T00:16:39.313Z,96.20
2019-04-04T00:17:17.753Z,96.20
2019-04-04T00:17:56.197Z,96.20
2019-04-04T00:18:34.642Z,96.20
2019-04-04T00:19:13.160Z,96.10
2019-04-04T00:19:51.627Z,96.20
2019-04-04T00:20:31.863Z,96.10
2019-04-04T00:21:10.217Z,96.10
2019-04-04T00:21:48.690Z,96.10
2019-04-04T00:22:27.204Z,96.10
2019-04-04T00:23:07.473Z,96.00
2019-04-04T00:23:46.110Z,95.90
2019-04-04T00:24:24.620Z,95.80
2019-04-04T00:25:03.180Z,95.80
2019-04-04T00:25:41.683Z,95.70
2019-04-04T00:26:20.104Z,95.80
2019-04-04T00:26:58.551Z,95.80
2019-04-04T00:27:36.997Z,95.80
2019-04-04T00:28:16.234Z,95.80
2019-04-04T00:28:54.705Z,95.80
2019-04-04T00:29:33.157Z,95.80
2019-04-04T00:30:13.673Z,95.70
2019-04-04T00:30:52.189Z,95.70
2019-04-04T00:31:30.688Z,95.60
2019-04-04T00:32:09.263Z,95.60
2019-04-04T00:32:47.735Z,95.60
2019-04-04T00:33:26.368Z,95.50
2019-04-04T00:34:04.923Z,95.50
2019-04-04T00:34:43.410Z,95.30
2019-04-04T00:35:21.916Z,95.30
2019-04-04T00:36:00.674Z,95.30
2019-04-04T00:36:40.260Z,95.20
2019-04-04T00:37:18.753Z,95.20
2019-04-04T00:37:57.306Z,95.20
2019-04-04T00:38:36.065Z,95.20
2019-04-04T00:39:15.719Z,95.30
2019-04-04T00:39:54.214Z,95.30
2019-04-04T00:40:32.739Z,95.30
2019-04-04T00:41:12.833Z,95.30
2019-04-04T00:41:51.115Z,95.40
2019-04-04T00:42:29.580Z,95.40
2019-04-04T00:43:08.037Z,95.40
2019-04-04T00:43:46.441Z,95.40
2019-04-04T00:44:24.880Z,95.40
2019-04-04T00:45:03.372Z,95.50
2019-04-04T00:45:43.042Z,95.50
2019-04-04T00:46:21.661Z,95.50
2019-04-04T00:47:01.518Z,95.50
2019-04-04T00:47:40.018Z,95.50
2019-04-04T00:48:18.492Z,95.40
2019-04-04T00:48:56.937Z,95.50
2019-04-04T00:49:35.552Z,95.50
2019-04-04T00:50:14.664Z,95.60
2019-04-04T00:50:53.207Z,95.70
2019-04-04T00:51:31.685Z,95.60
2019-04-04T00:52:10.853Z,95.50
2019-04-04T00:52:49.380Z,95.40
2019-04-04T00:53:27.818Z,95.30
2019-04-04T00:54:06.343Z,95.50
2019-04-04T00:54:44.992Z,95.10
2019-04-04T00:55:23.985Z,94.80
2019-04-04T00:56:02.474Z,94.80
2019-04-04T00:56:41.010Z,94.90
2019-04-04T00:57:20.535Z,94.90
2019-04-04T00:57:59.054Z,94.90
2019-04-04T00:58:37.792Z,94.80
2019-04-04T00:59:16.387Z,94.70
2019-04-04T00:59:54.981Z,94.50
2019-04-04T01:00:33.614Z,94.30
2019-04-04T01:01:12.248Z,94.40
2019-04-04T01:01:51.109Z,94.00
2019-04-04T01:02:29.835Z,93.90
2019-04-04T01:03:08.660Z,93.80
2019-04-04T01:03:47.485Z,93.80
2019-04-04T01:04:26.317Z,93.70
2019-04-04T01:05:05.124Z,93.70
2019-04-04T01:05:43.946Z,93.70
2019-04-04T01:06:22.794Z,93.70
2019-04-04T01:07:03.009Z,93.60
2019-04-04T01:07:41.765Z,93.60
2019-04-04T01:08:20.608Z,93.50
2019-04-04T01:08:59.377Z,93.50
2019-04-04T01:09:38.139Z,93.50
2019-04-04T01:10:18.822Z,93.50
2019-04-04T01:10:57.068Z,93.40
2019-04-04T01:11:35.854Z,93.50
2019-04-04T01:12:14.694Z,93.40
2019-04-04T01:12:53.463Z,93.40
2019-04-04T01:13:32.406Z,93.40
2019-04-04T01:14:11.189Z,93.40
2019-04-04T01:14:50.043Z,93.30
2019-04-04T01:15:31.080Z,93.30
2019-04-04T01:16:09.001Z,93.30
2019-04-04T01:16:47.755Z,93.30
2019-04-04T01:17:26.548Z,93.30
2019-04-04T01:18:06.161Z,93.30
2019-04-04T01:18:45.481Z,93.30
2019-04-04T01:19:24.275Z,93.40
2019-04-04T01:20:03.082Z,93.40
2019-04-04T01:20:41.902Z,93.40
2019-04-04T01:21:22.191Z,93.30
2019-04-04T01:22:00.741Z,93.30
2019-04-04T01:22:39.568Z,93.20
2019-04-04T01:23:18.398Z,93.20
2019-04-04T01:23:58.418Z,93.20
2019-04-04T01:24:37.372Z,93.20
2019-04-04T01:25:16.166Z,93.30
2019-04-04T01:25:54.976Z,93.30
2019-04-04T01:26:35.170Z,93.20
2019-04-04T01:27:13.888Z,93.20
2019-04-04T01:27:52.647Z,93.20
2019-04-04T01:28:31.445Z,93.10
2019-04-04T01:29:11.031Z,93.10
2019-04-04T01:29:50.043Z,93.00
2019-04-04T01:30:28.772Z,93.10
2019-04-04T01:31:08.795Z,93.10
2019-04-04T01:31:47.602Z,93.10
2019-04-04T01:32:26.432Z,93.10
2019-04-04T01:33:05.364Z,93.00
2019-04-04T01:33:44.099Z,93.10
2019-04-04T01:34:22.833Z,93.00
2019-04-04T01:35:01.600Z,93.00
2019-04-04T01:35:41.018Z,93.00
2019-04-04T01:36:19.849Z,93.00
2019-04-04T01:36:58.701Z,92.90
2019-04-04T01:37:37.505Z,93.00
2019-04-04T01:38:16.330Z,93.00
2019-04-04T01:38:55.966Z,93.30
2019-04-04T01:39:37.104Z,92.90
2019-04-04T01:40:16.609Z,92.90
2019-04-04T01:40:55.451Z,92.90
2019-04-04T01:41:36.160Z,92.90
2019-04-04T01:42:14.334Z,92.90
2019-04-04T01:42:53.057Z,92.90
2019-04-04T01:43:31.862Z,92.90
2019-04-04T01:44:11.321Z,92.90
2019-04-04T01:44:50.609Z,92.90
2019-04-04T01:45:29.428Z,92.90
2019-04-04T01:46:08.178Z,92.90
2019-04-04T01:46:46.881Z,92.90
2019-04-04T01:47:25.596Z,92.80
2019-04-04T01:48:04.411Z,92.90
2019-04-04T01:48:43.226Z,92.90
2019-04-04T01:49:22.115Z,92.90
2019-04-04T01:50:00.845Z,92.90
2019-04-04T01:50:39.640Z,92.90
2019-04-04T01:51:18.406Z,92.90
2019-04-04T01:51:57.907Z,92.90
2019-04-04T01:52:36.762Z,92.90
2019-04-04T01:53:15.531Z,92.80
2019-04-04T01:53:54.296Z,92.70
2019-04-04T01:54:33.057Z,92.70
2019-04-04T01:55:11.926Z,92.70
2019-04-04T01:55:50.679Z,92.50
2019-04-04T01:56:29.515Z,92.50
2019-04-04T01:57:08.763Z,92.50
2019-04-04T01:57:47.590Z,92.40
2019-04-04T01:58:26.319Z,92.30
2019-04-04T01:59:05.082Z,92.10
2019-04-04T01:59:44.457Z,92.10
2019-04-04T02:00:23.371Z,92.00
2019-04-04T02:01:02.133Z,92.00
2019-04-04T02:01:40.928Z,92.00
2019-04-04T02:02:19.882Z,92.10
2019-04-04T02:02:58.606Z,91.80
2019-04-04T02:03:37.387Z,91.80
2019-04-04T02:04:16.550Z,91.80
2019-04-04T02:04:55.945Z,91.80
2019-04-04T02:05:35.287Z,91.80
2019-04-04T02:06:14.098Z,91.80
2019-04-04T02:06:52.858Z,91.80
2019-04-04T02:07:31.571Z,91.80
2019-04-04T02:08:10.347Z,91.80
2019-04-04T02:08:49.132Z,91.90
2019-04-04T02:09:29.116Z,91.90
2019-04-04T02:10:07.988Z,91.90
2019-04-04T02:10:46.772Z,91.90
2019-04-04T02:11:25.482Z,92.00
2019-04-04T02:12:07.465Z,92.00
2019-04-04T02:12:44.332Z,92.00
2019-04-04T02:13:23.071Z,92.00
2019-04-04T02:14:01.869Z,92.10
2019-04-04T02:14:42.870Z,92.00
2019-04-04T02:15:20.778Z,92.00
2019-04-04T02:15:59.577Z,91.90
2019-04-04T02:16:38.371Z,91.70
2019-04-04T02:17:17.113Z,91.20
2019-04-04T02:17:55.897Z,91.40
2019-04-04T02:18:34.604Z,91.40
2019-04-04T02:19:13.393Z,91.40
2019-04-04T02:19:55.454Z,91.30
2019-04-04T02:20:32.173Z,91.20
2019-04-04T02:21:10.966Z,91.20
2019-04-04T02:21:49.729Z,91.30
2019-04-04T02:22:30.612Z,91.10
2019-04-04T02:23:09.337Z,90.90
2019-04-04T02:23:51.516Z,90.90
2019-04-04T02:24:31.787Z,90.90
2019-04-04T02:25:10.903Z,90.90
2019-04-04T02:25:49.648Z,90.80
2019-04-04T02:26:28.411Z,90.90
2019-04-04T02:27:09.085Z,90.90
2019-04-04T02:27:47.466Z,91.00
2019-04-04T02:28:26.213Z,91.20
2019-04-04T02:29:10.698Z,91.10
2019-04-04T02:29:47.791Z,90.90
2019-04-04T02:30:28.774Z,91.00
2019-04-04T02:31:10.748Z,90.80
2019-04-04T02:31:53.740Z,90.80
2019-04-04T02:32:33.752Z,90.90
2019-04-04T02:33:12.654Z,91.00
2019-04-04T02:33:51.419Z,91.10
2019-04-04T02:34:30.192Z,91.20
2019-04-04T02:35:10.701Z,91.20
2019-04-04T02:35:49.183Z,91.20
2019-04-04T02:36:27.964Z,91.00
2019-04-04T02:37:06.847Z,90.80
2019-04-04T02:37:50.405Z,90.70
2019-04-04T02:38:29.163Z,90.80
2019-04-04T02:39:11.597Z,90.60
2019-04-04T02:39:50.378Z,90.60
2019-04-04T02:40:29.090Z,90.60
2019-04-04T02:41:15.046Z,90.70
2019-04-04T02:41:53.317Z,90.60
2019-04-04T02:42:32.054Z,90.40
2019-04-04T02:43:12.053Z,90.40
2019-04-04T02:43:50.849Z,90.60
2019-04-04T02:44:32.078Z,90.40
2019-04-04T02:45:12.929Z,90.20
2019-04-04T02:45:51.277Z,90.10
2019-04-04T02:46:30.022Z,90.20
2019-04-04T02:47:11.721Z,90.30
2019-04-04T02:47:51.391Z,90.30
2019-04-04T02:48:32.798Z,90.30
2019-04-04T02:49:11.563Z,90.50
2019-04-04T02:49:50.345Z,90.70
2019-04-04T02:50:29.239Z,90.60
2019-04-04T02:51:10.620Z,90.60
2019-04-04T02:51:49.452Z,90.30
2019-04-04T02:52:29.823Z,90.20
2019-04-04T02:53:08.741Z,90.30
2019-04-04T02:53:51.832Z,90.10
2019-04-04T02:54:27.739Z,89.70
2019-04-04T02:55:06.606Z,89.90
2019-04-04T02:55:45.453Z,90.10
2019-04-04T02:56:24.356Z,90.20
2019-04-04T02:57:05.649Z,90.40
2019-04-04T02:57:44.130Z,90.30
2019-04-04T02:58:22.934Z,90.00
2019-04-04T02:59:01.752Z,90.10
2019-04-04T02:59:40.516Z,90.20
2019-04-04T03:00:26.365Z,90.20
2019-04-04T03:01:01.964Z,90.10
2019-04-04T03:01:40.854Z,89.90
2019-04-04T03:02:19.707Z,90.00
2019-04-04T03:02:59.768Z,89.80
2019-04-04T03:03:41.143Z,89.70
2019-04-04T03:04:18.779Z,90.00
2019-04-04T03:04:58.723Z,90.00
2019-04-04T03:05:37.565Z,90.00
2019-04-04T03:06:18.190Z,90.00
2019-04-04T03:06:58.480Z,90.10
2019-04-04T03:07:36.802Z,90.20
2019-04-04T03:08:15.545Z,90.40
2019-04-04T03:08:54.311Z,90.00
2019-04-04T03:09:33.108Z,90.00
2019-04-04T03:10:15.262Z,90.00
2019-04-04T03:10:52.039Z,90.00
2019-04-04T03:11:30.808Z,89.80
2019-04-04T03:12:09.675Z,89.90
2019-04-04T03:12:48.448Z,90.10
2019-04-04T03:13:31.231Z,90.10
2019-04-04T03:14:08.366Z,90.20
2019-04-04T03:14:50.429Z,90.10
2019-04-04T03:15:28.404Z,90.10
2019-04-04T03:16:07.261Z,89.80
2019-04-04T03:16:46.055Z,89.70
2019-04-04T03:17:31.543Z,89.90
2019-04-04T03:18:08.221Z,89.80
2019-04-04T03:18:48.233Z,89.50
2019-04-04T03:19:27.007Z,89.60
2019-04-04T03:20:05.673Z,89.50
2019-04-04T03:20:49.041Z,89.10
2019-04-04T03:21:24.750Z,89.20
2019-04-04T03:22:03.985Z,89.40
2019-04-04T03:22:42.729Z,89.20
2019-04-04T03:23:21.469Z,89.30
2019-04-04T03:24:00.331Z,89.60
2019-04-04T03:24:40.400Z,89.80
2019-04-04T03:25:19.031Z,89.00
2019-04-04T03:25:57.689Z,88.90
2019-04-04T03:26:37.424Z,89.00
2019-04-04T03:27:16.209Z,89.30
2019-04-04T03:27:55.448Z,89.70
2019-04-04T03:28:34.962Z,89.50
2019-04-04T03:29:13.637Z,89.00
2019-04-04T03:29:53.732Z,89.00
2019-04-04T03:30:32.405Z,89.10
2019-04-04T03:31:12.181Z,89.00
2019-04-04T03:31:53.347Z,89.50
2019-04-04T03:32:35.527Z,88.80
2019-04-04T03:33:13.756Z,88.10
2019-04-04T03:33:52.547Z,88.20
2019-04-04T03:34:31.164Z,87.60
2019-04-04T03:35:10.168Z,87.80
2019-04-04T03:35:48.939Z,88.10
2019-04-04T03:36:27.658Z,88.20
2019-04-04T03:37:12.373Z,88.30
2019-04-04T03:37:50.813Z,88.30
2019-04-04T03:38:29.541Z,88.40
2019-04-04T03:39:11.066Z,88.30
2019-04-04T03:39:52.981Z,88.30
2019-04-04T03:40:29.858Z,88.30
2019-04-04T03:41:10.158Z,88.30
2019-04-04T03:41:48.821Z,88.30
2019-04-04T03:42:27.520Z,88.80
2019-04-04T03:43:06.259Z,88.20
2019-04-04T03:43:48.103Z,88.10
2019-04-04T03:44:25.167Z,88.40
2019-04-04T03:45:04.096Z,87.80
2019-04-04T03:45:42.851Z,87.60
2019-04-04T03:46:25.621Z,87.80
2019-04-04T03:47:09.775Z,88.20
2019-04-04T03:47:46.941Z,88.20
2019-04-04T03:48:28.302Z,87.90
2019-04-04T03:49:06.944Z,87.80
2019-04-04T03:49:48.074Z,88.00
2019-04-04T03:50:30.285Z,87.70
2019-04-04T03:51:08.066Z,86.80
2019-04-04T03:51:46.943Z,87.30
2019-04-04T03:52:25.704Z,87.50
2019-04-04T03:53:04.522Z,87.20
2019-04-04T03:53:49.305Z,87.10
2019-04-04T03:54:29.420Z,86.70
2019-04-04T03:55:08.582Z,86.60
2019-04-04T03:55:47.277Z,86.90
2019-04-04T03:56:27.287Z,86.80
2019-04-04T03:57:06.150Z,86.70
2019-04-04T03:57:44.964Z,86.90
2019-04-04T03:58:26.890Z,86.80
2019-04-04T03:59:03.742Z,87.10
2019-04-04T03:59:42.453Z,87.50
2019-04-04T04:00:34.514Z,87.90
2019-04-04T04:01:13.416Z,88.00
2019-04-04T04:01:52.204Z,87.00
2019-04-04T04:02:32.307Z,87.20
2019-04-04T04:03:11.048Z,87.20
2019-04-04T04:03:49.756Z,87.40
2019-04-04T04:04:30.367Z,87.80
2019-04-04T04:05:27.189Z,87.00
2019-04-04T04:06:08.695Z,86.90
2019-04-04T04:06:46.177Z,86.70
2019-04-04T04:07:32.817Z,86.40
2019-04-04T04:08:13.363Z,86.30
2019-04-04T04:08:54.778Z,87.10
2019-04-04T04:09:35.177Z,87.10
2019-04-04T04:10:15.139Z,87.40
2019-04-04T04:10:53.934Z,87.20
2019-04-04T04:11:34.680Z,87.10
2019-04-04T04:12:13.814Z,86.80
2019-04-04T04:12:55.403Z,86.90
2019-04-04T04:13:34.164Z,86.20
2019-04-04T04:14:13.532Z,86.30
2019-04-04T04:14:55.956Z,86.70
2019-04-04T04:15:42.454Z,86.70
2019-04-04T04:16:21.106Z,87.00
2019-04-04T04:17:00.779Z,87.50
2019-04-04T04:17:39.557Z,88.20
2019-04-04T04:18:21.750Z,88.00
2019-04-04T04:19:02.854Z,88.30
2019-04-04T04:19:41.579Z,88.90
2019-04-04T04:20:21.321Z,88.90
2019-04-04T04:21:00.161Z,89.00
2019-04-04T04:21:42.908Z,89.00
2019-04-04T04:22:19.566Z,89.10
2019-04-04T04:22:58.332Z,88.90
2019-04-04T04:23:37.090Z,88.80
2019-04-04T04:24:17.791Z,88.70
2019-04-04T04:24:56.518Z,88.50
2019-04-04T04:25:36.455Z,88.60
2019-04-04T04:26:20.358Z,88.60
2019-04-04T04:26:59.731Z,88.70
2019-04-04T04:27:38.512Z,89.10
2019-04-04T04:28:20.087Z,88.70
2019-04-04T04:28:58.180Z,88.90
2019-04-04T04:29:36.996Z,88.90
2019-04-04T04:30:16.610Z,89.10
2019-04-04T04:30:57.106Z,89.60
2019-04-04T04:31:36.874Z,89.50
2019-04-04T04:32:15.649Z,89.70
2019-04-04T04:32:57.816Z,89.50
2019-04-04T04:33:36.637Z,89.10
2019-04-04T04:34:15.897Z,88.60
2019-04-04T04:34:58.865Z,87.90
2019-04-04T04:35:40.546Z,87.80
2019-04-04T04:36:23.371Z,87.30
2019-04-04T04:37:04.748Z,87.80
2019-04-04T04:37:43.503Z,87.80
2019-04-04T04:38:25.595Z,87.00
2019-04-04T04:39:05.643Z,87.40
2019-04-04T04:39:46.853Z,87.50
2019-04-04T04:40:28.001Z,87.80
2019-04-04T04:41:06.996Z,87.70
2019-04-04T04:41:45.642Z,87.80
2019-04-04T04:42:26.672Z,88.20
2019-04-04T04:43:05.993Z,87.70
2019-04-04T04:43:45.839Z,87.60
2019-04-04T04:44:28.306Z,87.30
2019-04-04T04:45:11.094Z,85.80
2019-04-04T04:45:47.578Z,84.70
2019-04-04T04:46:26.597Z,84.30
2019-04-04T04:47:05.706Z,84.70
2019-04-04T04:47:44.669Z,84.00
2019-04-04T04:48:26.007Z,83.40
2019-04-04T04:49:08.044Z,83.50
2019-04-04T04:49:46.444Z,84.30
2019-04-04T04:50:49.337Z,84.60
2019-04-04T04:51:29.150Z,85.20
2019-04-04T04:52:14.196Z,85.30
2019-04-04T04:52:54.408Z,84.70
2019-04-04T04:53:33.326Z,84.00
2019-04-04T04:54:13.538Z,83.00
2019-04-04T04:54:54.599Z,82.50
2019-04-04T04:55:32.431Z,82.40
2019-04-04T04:56:13.333Z,83.80
2019-04-04T04:56:52.182Z,83.20
2019-04-04T04:57:36.629Z,83.50
2019-04-04T04:58:13.818Z,83.70
2019-04-04T04:58:55.331Z,84.00
2019-04-04T04:59:32.765Z,84.40
2019-04-04T05:00:11.542Z,85.00
2019-04-04T05:00:51.717Z,84.80
2019-04-04T05:01:30.594Z,84.80
2019-04-04T05:02:10.058Z,84.40
2019-04-04T05:02:51.015Z,83.80
2019-04-04T05:03:32.650Z,83.80
2019-04-04T05:04:11.496Z,83.90
2019-04-04T05:04:50.305Z,84.20
2019-04-04T05:05:30.990Z,84.20
2019-04-04T05:06:11.213Z,84.30
2019-04-04T05:06:55.131Z,84.40
2019-04-04T05:07:33.941Z,84.40
2019-04-04T05:08:14.136Z,84.10
2019-04-04T05:08:55.476Z,82.50
2019-04-04T05:09:35.256Z,80.90
2019-04-04T05:10:16.323Z,80.00
2019-04-04T05:10:56.358Z,78.60
2019-04-04T05:11:35.223Z,77.90
2019-04-04T05:12:14.059Z,77.60
2019-04-04T05:12:53.045Z,78.10
2019-04-04T05:13:32.570Z,77.50
2019-04-04T05:14:11.480Z,76.80
2019-04-04T05:14:50.259Z,77.10
2019-04-04T05:15:30.403Z,77.70
2019-04-04T05:16:11.506Z,78.20
2019-04-04T05:16:51.967Z,78.90
2019-04-04T05:17:32.476Z,78.50
2019-04-04T05:18:12.059Z,77.70
2019-04-04T05:18:51.278Z,77.40
2019-04-04T05:19:38.585Z,77.40
2019-04-04T05:20:19.833Z,77.40
2019-04-04T05:21:01.848Z,78.50
2019-04-04T05:21:41.512Z,76.60
2019-04-04T05:22:20.331Z,76.60
2019-04-04T05:23:00.455Z,76.80
2019-04-04T05:23:39.214Z,76.90
2019-04-04T05:24:19.178Z,76.20
2019-04-04T05:25:07.953Z,76.40
2019-04-04T05:25:50.618Z,76.60
2019-04-04T05:26:19.111Z,77.00
2019-04-04T05:27:05.956Z,78.10
2019-04-04T05:27:45.188Z,77.90
2019-04-04T05:28:26.628Z,78.70
2019-04-04T05:29:07.576Z,78.70
2019-04-04T05:29:49.379Z,79.50
2019-04-04T05:30:28.254Z,79.80
2019-04-04T05:31:11.921Z,80.00
2019-04-04T05:31:52.421Z,80.40
2019-04-04T05:32:30.910Z,80.70
2019-04-04T05:33:12.171Z,81.10
2019-04-04T05:33:54.689Z,81.30
2019-04-04T05:34:38.616Z,81.80
2019-04-04T05:35:17.395Z,81.90
2019-04-04T05:35:58.887Z,81.90
2019-04-04T05:36:40.700Z,82.00
2019-04-04T05:38:17.708Z,81.00
2019-04-04T05:39:01.187Z,79.70
2019-04-04T05:39:42.640Z,79.60
2019-04-04T05:40:23.475Z,79.10
2019-04-04T05:41:04.384Z,78.90
2019-04-04T05:41:46.309Z,79.50
2019-04-04T05:42:29.164Z,79.60
2019-04-04T05:43:10.826Z,80.20
2019-04-04T05:43:50.096Z,80.60
2019-04-04T05:44:29.363Z,81.00
2019-04-04T05:45:14.251Z,81.20
2019-04-04T05:45:54.715Z,81.50
2019-04-04T05:46:33.702Z,81.90
2019-04-04T05:47:17.806Z,82.00
2019-04-04T05:47:59.738Z,82.00
2019-04-04T05:48:39.497Z,81.40
2019-04-04T05:49:19.013Z,81.50
2019-04-04T05:49:58.579Z,81.60
2019-04-04T05:50:39.103Z,81.00
2019-04-04T05:51:19.372Z,80.40
2019-04-04T05:52:00.125Z,80.00
2019-04-04T05:52:39.219Z,80.10
2019-04-04T05:53:18.014Z,80.30
2019-04-04T05:54:17.755Z,80.80
2019-04-04T05:54:56.600Z,81.20
2019-04-04T05:55:36.652Z,81.50
2019-04-04T05:56:18.789Z,81.90
2019-04-04T05:56:57.940Z,82.20
2019-04-04T05:57:38.610Z,82.10
2019-04-04T05:58:17.010Z,82.40
2019-04-04T05:58:59.527Z,82.70
2019-04-04T05:59:38.390Z,82.80
2019-04-04T06:00:18.575Z,83.10
2019-04-04T06:00:57.802Z,83.30
2019-04-04T06:01:43.320Z,83.50
2019-04-04T06:02:23.978Z,83.50
2019-04-04T06:03:04.171Z,83.30
2019-04-04T06:03:47.036Z,83.00
2019-04-04T06:04:25.395Z,83.20
2019-04-04T06:05:06.043Z,82.60
2019-04-04T06:05:45.598Z,82.30
2019-04-04T06:06:25.550Z,82.20
2019-04-04T06:07:06.824Z,82.30
2019-04-04T06:07:46.337Z,82.50
2019-04-04T06:08:25.049Z,82.60
2019-04-04T06:09:03.907Z,82.80
2019-04-04T06:09:48.446Z,83.10
2019-04-04T06:10:29.203Z,83.10
2019-04-04T06:11:07.998Z,83.20
2019-04-04T06:11:48.743Z,83.40
2019-04-04T06:12:27.693Z,83.70
2019-04-04T06:13:06.891Z,83.70
2019-04-04T06:13:45.933Z,83.80
2019-04-04T06:14:27.985Z,84.00
2019-04-04T06:15:08.155Z,83.80
2019-04-04T06:15:46.959Z,83.90
2019-04-04T06:16:25.837Z,84.20
2019-04-04T06:17:07.859Z,84.40
2019-04-04T06:17:48.568Z,84.10
2019-04-04T06:18:29.953Z,84.40
2019-04-04T06:19:14.123Z,84.50
2019-04-04T06:19:56.357Z,84.50
2019-04-04T06:20:39.111Z,84.70
2019-04-04T06:21:22.674Z,84.40
2019-04-04T06:22:34.637Z,84.90
2019-04-04T06:23:15.585Z,84.70
2019-04-04T06:24:01.802Z,84.70
2019-04-04T06:24:46.195Z,84.40
2019-04-04T06:25:26.979Z,84.30
2019-04-04T06:26:07.756Z,84.20
2019-04-04T06:26:48.112Z,84.30
2019-04-04T06:27:28.570Z,84.50
2019-04-04T06:28:11.615Z,84.30
2019-04-04T06:28:51.493Z,84.70
2019-04-04T06:29:32.902Z,84.80
2019-04-04T06:30:12.775Z,84.40
2019-04-04T06:30:53.813Z,85.20
2019-04-04T06:31:32.037Z,84.80
2019-04-04T06:32:13.406Z,85.00
2019-04-04T06:32:52.157Z,84.80
2019-04-04T06:33:30.908Z,85.10
2019-04-04T06:34:10.942Z,85.00
2019-04-04T06:34:49.808Z,84.60
2019-04-04T06:35:28.641Z,85.30
2019-04-04T06:36:07.466Z,85.00
2019-04-04T06:36:46.989Z,85.70
2019-04-04T06:37:27.415Z,85.00
2019-04-04T06:38:07.471Z,86.20
2019-04-04T06:38:46.337Z,85.60
2019-04-04T06:39:25.713Z,85.60
2019-04-04T06:40:04.670Z,85.90
2019-04-04T06:40:47.380Z,85.70
2019-04-04T06:41:28.184Z,86.00
2019-04-04T06:42:06.359Z,86.40
2019-04-04T06:42:46.917Z,86.80
2019-04-04T06:43:25.358Z,85.90
2019-04-04T06:44:04.081Z,86.20
2019-04-04T06:44:43.972Z,86.60
2019-04-04T06:45:24.549Z,86.20
2019-04-04T06:46:06.353Z,86.00
2019-04-04T06:46:45.229Z,85.90
2019-04-04T06:47:29.121Z,85.70
2019-04-04T06:48:08.806Z,85.70
2019-04-04T06:48:47.560Z,85.90
2019-04-04T06:49:28.724Z,85.80
2019-04-04T06:50:09.084Z,85.80
2019-04-04T06:50:47.981Z,86.00
2019-04-04T06:51:26.759Z,86.00
2019-04-04T06:52:09.252Z,85.80
2019-04-04T06:52:48.284Z,86.20
2019-04-04T06:53:27.092Z,85.80
2019-04-04T06:54:05.838Z,86.00
2019-04-04T06:54:44.633Z,86.30
2019-04-04T06:55:26.428Z,86.00
2019-04-04T06:56:04.784Z,86.00
2019-04-04T06:56:43.595Z,86.40
2019-04-04T06:57:22.452Z,86.00
2019-04-04T06:58:08.383Z,86.00
2019-04-04T06:58:46.099Z,86.40
2019-04-04T06:59:25.265Z,86.20
2019-04-04T07:00:05.134Z,85.90
2019-04-04T07:00:43.892Z,85.90
2019-04-04T07:01:25.205Z,86.10
2019-04-04T07:02:05.062Z,86.20
2019-04-04T07:02:42.924Z,86.00
2019-04-04T07:03:22.985Z,86.20
2019-04-04T07:04:01.772Z,86.10
2019-04-04T07:04:40.617Z,85.60
2019-04-04T07:05:19.368Z,84.90
2019-04-04T07:05:59.520Z,84.80
2019-04-04T07:06:41.602Z,84.90
2019-04-04T07:07:18.445Z,84.80
2019-04-04T07:07:57.269Z,85.00
2019-04-04T07:08:36.029Z,85.10
2019-04-04T07:09:19.017Z,85.00
2019-04-04T07:09:58.981Z,85.00
2019-04-04T07:10:39.123Z,85.00
2019-04-04T07:11:21.442Z,85.00
2019-04-04T07:11:58.062Z,84.90
2019-04-04T07:12:38.169Z,85.10
2019-04-04T07:13:22.050Z,85.00
2019-04-04T07:13:58.925Z,85.10
2019-04-04T07:14:45.484Z,85.00
2019-04-04T07:15:17.456Z,85.10
2019-04-04T07:16:06.012Z,85.10
2019-04-04T07:16:36.814Z,85.10
2019-04-04T07:17:16.448Z,85.10
2019-04-04T07:17:55.441Z,85.10
2019-04-04T07:18:34.231Z,85.00
2019-04-04T07:19:15.013Z,84.90
2019-04-04T07:19:54.328Z,84.90
2019-04-04T07:20:33.194Z,84.90
2019-04-04T07:21:11.864Z,84.80
2019-04-04T07:21:52.036Z,84.80
2019-04-04T07:22:30.882Z,84.80
2019-04-04T07:23:14.154Z,84.80
2019-04-04T07:23:51.531Z,84.80
2019-04-04T07:24:31.139Z,84.90
2019-04-04T07:25:10.713Z,84.80
2019-04-04T07:25:49.437Z,84.80
2019-04-04T07:26:28.250Z,84.80
2019-04-04T07:27:14.203Z,84.80
2019-04-04T07:27:53.614Z,84.80
2019-04-04T07:28:34.737Z,84.90
2019-04-04T07:29:14.996Z,84.90
2019-04-04T07:29:56.537Z,84.80
2019-04-04T07:30:37.098Z,84.70
2019-04-04T07:31:16.171Z,84.70
2019-04-04T07:31:55.143Z,84.30
2019-04-04T07:32:34.517Z,82.70
2019-04-04T07:33:14.109Z,81.70
2019-04-04T07:33:52.868Z,80.70
2019-04-04T07:34:33.413Z,80.40
2019-04-04T07:35:17.185Z,79.90
2019-04-04T07:35:58.225Z,79.60
2019-04-04T07:36:36.694Z,80.30
2019-04-04T07:37:15.476Z,79.50
2019-04-04T07:37:57.284Z,80.00
2019-04-04T07:38:35.082Z,79.90
2019-04-04T07:39:14.570Z,80.30
2019-04-04T07:39:53.301Z,80.10
2019-04-04T07:40:37.076Z,80.20
2019-04-04T07:41:14.777Z,79.70
2019-04-04T07:41:53.195Z,80.20
2019-04-04T07:42:31.928Z,80.20
2019-04-04T07:43:10.674Z,79.40
2019-04-04T07:43:51.449Z,80.10
2019-04-04T07:44:32.422Z,81.10
2019-04-04T07:45:10.927Z,80.10
2019-04-04T07:45:49.682Z,80.20
2019-04-04T07:46:28.472Z,80.20
2019-04-04T07:47:10.206Z,80.50
2019-04-04T07:47:48.966Z,80.70
2019-04-04T07:48:28.901Z,80.80
2019-04-04T07:49:07.671Z,80.80
2019-04-04T07:49:46.409Z,81.30
2019-04-04T07:50:26.389Z,81.60
2019-04-04T07:51:09.280Z,81.80
2019-04-04T07:51:48.001Z,81.60
2019-04-04T07:52:28.935Z,81.80
2019-04-04T07:53:08.993Z,82.10
2019-04-04T07:53:47.765Z,82.20
2019-04-04T07:54:26.524Z,82.10
2019-04-04T07:55:06.226Z,82.40
2019-04-04T07:55:46.316Z,82.40
2019-04-04T07:56:25.104Z,82.40
2019-04-04T07:57:05.135Z,82.20
2019-04-04T07:57:43.882Z,82.30
2019-04-04T07:58:23.963Z,82.20
2019-04-04T07:59:02.869Z,82.50
2019-04-04T07:59:43.139Z,82.40
2019-04-04T08:02:13.734Z,82.60
2019-04-04T08:02:52.510Z,81.80
2019-04-04T08:03:31.624Z,79.90
2019-04-04T08:04:11.055Z,80.00
2019-04-04T08:04:51.458Z,80.60
2019-04-04T08:05:30.208Z,79.00
2019-04-04T08:06:10.581Z,77.70
2019-04-04T08:06:49.948Z,78.80
2019-04-04T08:07:29.298Z,78.90
2019-04-04T08:08:10.719Z,79.30
2019-04-04T08:08:49.273Z,79.70
2019-04-04T08:09:29.636Z,79.60
2019-04-04T08:10:20.380Z,80.10
2019-04-04T08:10:55.274Z,79.30
2019-04-04T08:11:34.605Z,79.40
2019-04-04T08:12:16.734Z,80.30
2019-04-04T08:13:02.343Z,79.60
2019-04-04T08:13:41.164Z,78.90
2019-04-04T08:14:22.480Z,79.70
2019-04-04T08:15:02.956Z,79.90
2019-04-04T08:15:43.076Z,79.90
2019-04-04T08:16:21.892Z,80.80
2019-04-04T08:17:01.070Z,78.90
2019-04-04T08:17:40.730Z,78.00
2019-04-04T08:18:22.849Z,75.00
2019-04-04T08:19:03.100Z,73.70
2019-04-04T08:19:44.309Z,73.20
2019-04-04T08:20:23.285Z,73.60
2019-04-04T08:21:02.373Z,74.80
2019-04-04T08:21:41.210Z,74.00
2019-04-04T08:22:21.835Z,73.40
2019-04-04T08:23:00.532Z,73.20
2019-04-04T08:23:39.962Z,73.50
2019-04-04T08:24:19.139Z,74.30
2019-04-04T08:25:00.177Z,74.30
2019-04-04T08:25:39.693Z,75.20
2019-04-04T08:26:19.602Z,75.00
2019-04-04T08:27:00.363Z,75.00
2019-04-04T08:27:45.090Z,75.50
2019-04-04T08:28:21.161Z,76.10
2019-04-04T08:29:03.671Z,76.00
2019-04-04T08:29:44.705Z,75.00
2019-04-04T08:30:23.017Z,74.40
2019-04-04T08:31:02.158Z,74.10
2019-04-04T08:31:41.443Z,73.90
2019-04-04T08:32:21.816Z,74.10
2019-04-04T08:33:01.074Z,74.30
2019-04-04T08:33:40.318Z,75.00
2019-04-04T08:34:24.551Z,75.80
2019-04-04T08:35:03.330Z,75.00
2019-04-04T08:35:43.325Z,75.00
2019-04-04T08:36:22.095Z,75.50